Aviation Digital Data Service (ADDS)

Output produced by TAFs form (1008 UTC 21 August 2014)
found at http://www.aviationweather.gov/adds/tafs/
 
KALB 210947Z 2110/2206 14005KT 6SM -SHRA BR OVC035 
     TEMPO 2110/2112 5SM -SHRA BR BKN020 
     FM211300 14005KT 3SM -SHRA BR OVC025 
     FM211600 14005KT 5SM BR VCSH SCT010 OVC035 
     FM212100 15008KT 4SM -SHRA BR OVC025